createdAt,value
2022-11-20T00:01:22.587Z,-3.55
2022-11-20T00:03:51.897Z,-3.59
2022-11-20T00:06:19.858Z,-3.61
2022-11-20T00:08:47.166Z,-3.65
2022-11-20T00:11:19.976Z,-3.69
2022-11-20T00:13:49.190Z,-3.76
2022-11-20T00:16:20.578Z,-3.81
2022-11-20T00:18:47.783Z,-3.86
2022-11-20T00:21:17.111Z,-3.88
2022-11-20T00:23:43.744Z,-3.89
2022-11-20T00:26:12.701Z,-3.87
2022-11-20T00:28:39.468Z,-3.86
2022-11-20T00:31:16.419Z,-3.86
2022-11-20T00:33:44.538Z,-3.84
2022-11-20T00:36:19.325Z,-3.83
2022-11-20T00:38:46.410Z,-3.83
2022-11-20T00:41:15.382Z,-3.83
2022-11-20T00:43:42.327Z,-3.82
2022-11-20T00:46:12.821Z,-3.80
2022-11-20T00:48:39.202Z,-3.78
2022-11-20T00:51:05.756Z,-3.77
2022-11-20T00:53:32.466Z,-3.77
2022-11-20T00:56:03.177Z,-3.78
2022-11-20T00:58:32.413Z,-3.79
2022-11-20T01:01:13.705Z,-3.78
2022-11-20T01:03:42.578Z,-3.76
2022-11-20T01:06:17.957Z,-3.74
2022-11-20T01:08:45.369Z,-3.72
2022-11-20T01:14:52.552Z,-3.69
2022-11-20T01:17:18.961Z,-3.69
2022-11-20T01:19:45.361Z,-3.72
2022-11-20T01:22:11.812Z,-3.73
2022-11-20T01:24:38.324Z,-3.75
2022-11-20T01:27:07.854Z,-3.78
2022-11-20T01:29:34.307Z,-3.80
2022-11-20T01:32:00.807Z,-3.81
2022-11-20T01:34:27.263Z,-3.81
2022-11-20T01:36:54.391Z,-3.80
2022-11-20T01:39:26.745Z,-3.77
2022-11-20T01:42:13.191Z,-3.75
2022-11-20T01:44:53.351Z,-3.74
2022-11-20T01:47:46.121Z,-3.71
2022-11-20T01:50:31.901Z,-3.68
2022-11-20T01:53:03.143Z,-3.63
2022-11-20T01:55:36.971Z,-3.60
2022-11-20T01:58:07.131Z,-3.58
2022-11-20T02:00:33.782Z,-3.54
2022-11-20T02:03:06.390Z,-3.49
2022-11-20T02:05:55.038Z,-3.43
2022-11-20T02:08:22.698Z,-3.36
2022-11-20T02:10:49.142Z,-3.30
2022-11-20T02:13:35.007Z,-3.24
2022-11-20T02:16:02.102Z,-3.17
2022-11-20T02:18:29.681Z,-3.12
2022-11-20T02:21:07.345Z,-3.07
2022-11-20T02:23:40.412Z,-3.01
2022-11-20T02:26:13.056Z,-2.96
2022-11-20T02:28:40.360Z,-2.91
2022-11-20T02:31:06.813Z,-2.85
2022-11-20T02:33:33.206Z,-2.78
2022-11-20T02:35:59.732Z,-2.73
2022-11-20T02:38:26.147Z,-2.68
2022-11-20T02:40:55.477Z,-2.65
2022-11-20T02:43:22.705Z,-2.61
2022-11-20T02:45:49.149Z,-2.57
2022-11-20T02:48:15.621Z,-2.56
2022-11-20T02:50:42.157Z,-2.56
2022-11-20T02:53:08.606Z,-2.56
2022-11-20T02:55:35.386Z,-2.53
2022-11-20T02:58:01.827Z,-2.52
2022-11-20T03:00:28.456Z,-2.50
2022-11-20T03:02:54.950Z,-2.51
2022-11-20T03:05:21.433Z,-2.53
2022-11-20T03:07:47.916Z,-2.54
2022-11-20T03:10:14.342Z,-2.56
2022-11-20T03:12:40.823Z,-2.58
2022-11-20T03:15:07.918Z,-2.62
2022-11-20T03:17:34.383Z,-2.68
2022-11-20T03:20:00.784Z,-2.76
2022-11-20T03:22:30.205Z,-2.80
2022-11-20T03:24:56.683Z,-2.85
2022-11-20T03:27:23.193Z,-2.89
2022-11-20T03:29:49.584Z,-2.90
2022-11-20T03:32:20.416Z,-2.92
2022-11-20T03:34:46.804Z,-2.92
2022-11-20T03:37:17.960Z,-2.92
2022-11-20T03:39:44.416Z,-2.92
2022-11-20T03:42:30.809Z,-2.91
2022-11-20T03:44:57.199Z,-2.88
2022-11-20T03:47:26.696Z,-2.88
2022-11-20T03:49:53.110Z,-2.89
2022-11-20T03:52:22.292Z,-2.90
2022-11-20T03:54:48.721Z,-2.93
2022-11-20T03:57:15.112Z,-2.92
2022-11-20T03:59:41.536Z,-2.91
2022-11-20T04:02:08.028Z,-2.92
2022-11-20T04:04:34.566Z,-2.92
2022-11-20T04:07:01.004Z,-2.90
2022-11-20T04:09:27.528Z,-2.91
2022-11-20T04:11:54.024Z,-2.95
2022-11-20T04:14:23.402Z,-3.00
2022-11-20T04:16:52.734Z,-3.02
2022-11-20T04:19:21.646Z,-3.04
2022-11-20T04:21:48.365Z,-3.04
2022-11-20T04:24:14.765Z,-3.06
2022-11-20T04:26:41.542Z,-3.05
2022-11-20T04:29:11.191Z,-3.05
2022-11-20T04:31:37.628Z,-3.06
2022-11-20T04:34:06.761Z,-3.05
2022-11-20T04:36:34.074Z,-3.05
2022-11-20T04:39:06.341Z,-3.04
2022-11-20T04:41:35.306Z,-3.02
2022-11-20T04:44:05.423Z,-3.03
2022-11-20T04:46:34.606Z,-3.04
2022-11-20T04:49:01.183Z,-3.03
2022-11-20T04:51:27.912Z,-3.02
2022-11-20T04:53:54.742Z,-3.02
2022-11-20T04:56:21.353Z,-3.00
2022-11-20T04:58:47.867Z,-2.97
2022-11-20T05:01:20.218Z,-2.93
2022-11-20T05:03:46.979Z,-2.88
2022-11-20T05:06:15.609Z,-2.84
2022-11-20T05:08:42.884Z,-2.79
2022-11-20T05:11:20.875Z,-2.75
2022-11-20T05:13:48.198Z,-2.71
2022-11-20T05:16:36.800Z,-2.68
2022-11-20T05:19:03.485Z,-2.65
2022-11-20T05:21:33.368Z,-2.61
2022-11-20T05:23:59.837Z,-2.59
2022-11-20T05:26:26.208Z,-2.57
2022-11-20T05:28:53.112Z,-2.58
2022-11-20T05:31:27.032Z,-2.59
2022-11-20T05:33:55.594Z,-2.61
2022-11-20T05:36:25.000Z,-2.61
2022-11-20T05:38:59.723Z,-2.60
2022-11-20T05:41:34.990Z,-2.60
2022-11-20T05:44:01.399Z,-2.62
2022-11-20T05:46:31.238Z,-2.60
2022-11-20T05:48:58.825Z,-2.59
2022-11-20T05:51:26.787Z,-2.57
2022-11-20T05:53:53.209Z,-2.59
2022-11-20T05:56:24.134Z,-2.59
2022-11-20T05:58:53.602Z,-2.59
2022-11-20T06:01:25.734Z,-2.56
2022-11-20T06:03:56.567Z,-2.53
2022-11-20T06:06:23.736Z,-2.51
2022-11-20T06:08:50.474Z,-2.51
2022-11-20T06:11:18.128Z,-2.51
2022-11-20T06:13:45.551Z,-2.49
2022-11-20T06:16:14.074Z,-2.45
2022-11-20T06:18:40.453Z,-2.39
2022-11-20T06:21:16.131Z,-2.38
2022-11-20T06:23:43.155Z,-2.39
2022-11-20T06:26:13.374Z,-2.40
2022-11-20T06:28:40.268Z,-2.40
2022-11-20T06:31:07.431Z,-2.40
2022-11-20T06:33:34.488Z,-2.40
2022-11-20T06:36:07.264Z,-2.39
2022-11-20T06:38:35.573Z,-2.38
2022-11-20T06:41:04.993Z,-2.37
2022-11-20T06:43:31.428Z,-2.34
2022-11-20T06:45:59.771Z,-2.29
2022-11-20T06:48:33.204Z,-2.27
2022-11-20T06:51:00.077Z,-2.28
2022-11-20T06:53:26.936Z,-2.27
2022-11-20T06:55:56.442Z,-2.26
2022-11-20T06:58:22.844Z,-2.27
2022-11-20T07:00:49.358Z,-2.30
2022-11-20T07:03:15.849Z,-2.34
2022-11-20T07:05:44.341Z,-2.36
2022-11-20T07:08:10.778Z,-2.39
2022-11-20T07:10:37.290Z,-2.42
2022-11-20T07:13:04.238Z,-2.45
2022-11-20T07:15:31.385Z,-2.44
2022-11-20T07:18:03.138Z,-2.43
2022-11-20T07:20:29.650Z,-2.42
2022-11-20T07:22:57.212Z,-2.41
2022-11-20T07:25:24.417Z,-2.38
2022-11-20T07:27:50.852Z,-2.34
2022-11-20T07:30:18.289Z,-2.33
2022-11-20T07:32:48.502Z,-2.33
2022-11-20T07:35:17.011Z,-2.31
2022-11-20T07:37:43.573Z,-2.28
2022-11-20T07:40:10.533Z,-2.29
2022-11-20T07:42:36.902Z,-2.29
2022-11-20T07:45:03.418Z,-2.27
2022-11-20T07:47:30.048Z,-2.23
2022-11-20T07:49:56.411Z,-2.17
2022-11-20T07:52:22.879Z,-2.10
2022-11-20T07:54:49.316Z,-2.02
2022-11-20T07:57:15.678Z,-1.92
2022-11-20T07:59:46.328Z,-1.83
2022-11-20T08:02:12.668Z,-1.75
2022-11-20T08:04:39.029Z,-1.70
2022-11-20T08:07:05.543Z,-1.66
2022-11-20T08:09:32.002Z,-1.63
2022-11-20T08:12:17.028Z,-1.63
2022-11-20T08:14:43.421Z,-1.61
2022-11-20T08:17:09.818Z,-1.60
2022-11-20T08:19:36.279Z,-1.57
2022-11-20T08:22:04.077Z,-1.52
2022-11-20T08:24:30.470Z,-1.49
2022-11-20T08:27:01.552Z,-1.49
2022-11-20T08:29:28.174Z,-1.52
2022-11-20T08:31:54.589Z,-1.54
2022-11-20T08:34:21.104Z,-1.55
2022-11-20T08:36:47.477Z,-1.53
2022-11-20T08:39:14.737Z,-1.52
2022-11-20T08:41:41.193Z,-1.50
2022-11-20T08:44:12.173Z,-1.49
2022-11-20T08:46:41.864Z,-1.47
2022-11-20T08:49:10.320Z,-1.42
2022-11-20T08:51:37.482Z,-1.40
2022-11-20T08:54:05.208Z,-1.32
2022-11-20T08:56:32.876Z,-1.22
2022-11-20T08:59:23.051Z,-1.10
2022-11-20T09:01:48.670Z,-0.96
2022-11-20T09:04:15.398Z,-0.89
2022-11-20T09:06:44.241Z,-0.80
2022-11-20T09:09:10.619Z,-0.72
2022-11-20T09:11:39.990Z,-0.62
2022-11-20T09:14:06.532Z,-0.59
2022-11-20T09:16:33.000Z,-0.55
2022-11-20T09:19:28.251Z,-0.53
2022-11-20T09:21:47.914Z,-0.50
2022-11-20T09:24:14.370Z,-0.44
2022-11-20T09:26:40.837Z,-0.41
2022-11-20T09:29:07.230Z,-0.41
2022-11-20T09:31:33.606Z,-0.44
2022-11-20T09:34:00.093Z,-0.47
2022-11-20T09:36:27.312Z,-0.44
2022-11-20T09:38:54.784Z,-0.34
2022-11-20T09:41:52.674Z,-0.22
2022-11-20T09:44:52.845Z,-0.05
2022-11-20T09:47:44.485Z,0.11
2022-11-20T09:50:31.470Z,0.28
2022-11-20T09:53:41.832Z,0.42
2022-11-20T09:56:12.032Z,0.59
2022-11-20T09:58:46.943Z,0.70
2022-11-20T10:01:18.816Z,0.74
2022-11-20T10:03:55.582Z,0.85
2022-11-20T10:06:30.689Z,0.96
2022-11-20T10:09:19.846Z,1.01
2022-11-20T10:11:58.614Z,1.04
2022-11-20T10:14:50.501Z,1.09
2022-11-20T10:17:47.789Z,1.13
2022-11-20T10:20:25.434Z,1.13
2022-11-20T10:23:25.760Z,1.10
2022-11-20T10:26:03.227Z,1.11
2022-11-20T10:29:09.298Z,1.12
2022-11-20T10:31:46.852Z,1.11
2022-11-20T10:34:23.491Z,1.17
2022-11-20T10:36:58.428Z,1.24
2022-11-20T10:39:51.217Z,1.28
2022-11-20T10:42:31.022Z,1.37
2022-11-20T10:45:16.696Z,1.47
2022-11-20T10:47:45.581Z,1.55
2022-11-20T10:50:22.626Z,1.59
2022-11-20T10:53:07.619Z,1.73
2022-11-20T10:55:44.198Z,1.87
2022-11-20T10:58:44.129Z,1.93
2022-11-20T11:01:19.355Z,1.98
2022-11-20T11:03:45.942Z,2.05
2022-11-20T11:06:51.329Z,2.12
2022-11-20T11:09:28.694Z,2.22
2022-11-20T11:11:55.084Z,2.33
2022-11-20T11:14:21.544Z,2.46
2022-11-20T11:17:01.341Z,2.52
2022-11-20T11:19:27.772Z,2.54
2022-11-20T11:22:00.718Z,2.58
2022-11-20T11:24:46.737Z,2.72
2022-11-20T11:27:18.835Z,2.86
2022-11-20T11:29:48.169Z,2.90
2022-11-20T11:32:19.286Z,2.97
2022-11-20T11:34:45.964Z,2.94
2022-11-20T11:37:18.556Z,2.88
2022-11-20T11:39:49.382Z,2.80
2022-11-20T11:42:23.926Z,2.77
2022-11-20T11:45:08.796Z,2.77
2022-11-20T11:47:44.500Z,2.70
2022-11-20T11:50:10.930Z,2.64
2022-11-20T11:52:46.498Z,2.67
2022-11-20T11:55:46.794Z,2.69
2022-11-20T11:58:49.278Z,2.68
2022-11-20T12:01:43.846Z,2.63
2022-11-20T12:04:28.621Z,2.58
2022-11-20T12:07:24.310Z,2.57
2022-11-20T12:09:54.720Z,2.57
2022-11-20T12:12:26.931Z,2.55
2022-11-20T12:14:57.196Z,2.56
2022-11-20T12:17:23.876Z,2.58
2022-11-20T12:19:50.341Z,2.62
2022-11-20T12:23:13.190Z,2.65
2022-11-20T12:25:42.446Z,2.68
2022-11-20T12:28:26.052Z,2.69
2022-11-20T12:31:22.325Z,2.62
2022-11-20T12:34:13.962Z,2.58
2022-11-20T12:36:51.982Z,2.56
2022-11-20T12:39:35.444Z,2.55
2022-11-20T12:42:27.247Z,2.60
2022-11-20T12:45:15.734Z,2.73
2022-11-20T12:48:00.091Z,2.88
2022-11-20T12:51:13.850Z,3.05
2022-11-20T12:53:43.919Z,3.33
2022-11-20T12:56:51.256Z,3.45
2022-11-20T12:59:45.914Z,3.54
2022-11-20T13:02:35.306Z,3.59
2022-11-20T13:05:01.633Z,3.66
2022-11-20T13:07:29.603Z,3.73
2022-11-20T13:10:00.307Z,3.78
2022-11-20T13:12:41.449Z,3.80
2022-11-20T13:15:31.200Z,3.70
2022-11-20T13:18:08.923Z,3.59
2022-11-20T13:20:37.093Z,3.50
2022-11-20T13:23:03.719Z,3.43
2022-11-20T13:25:32.933Z,3.35
2022-11-20T13:28:01.567Z,3.29
2022-11-20T13:30:29.590Z,3.19
2022-11-20T13:33:02.104Z,3.12
2022-11-20T13:35:36.216Z,3.22
2022-11-20T13:38:11.613Z,3.69
2022-11-20T13:40:50.776Z,3.64
2022-11-20T13:43:24.502Z,3.55
2022-11-20T13:46:03.686Z,3.47
2022-11-20T13:48:33.520Z,3.36
2022-11-20T13:51:10.814Z,3.25
2022-11-20T13:54:04.613Z,3.14
2022-11-20T13:56:54.389Z,3.04
2022-11-20T13:59:29.660Z,2.96
2022-11-20T14:01:56.556Z,2.92
2022-11-20T14:04:39.307Z,2.89
2022-11-20T14:07:07.526Z,2.84
2022-11-20T14:09:35.214Z,2.79
2022-11-20T14:12:04.712Z,2.74
2022-11-20T14:14:35.374Z,2.73
2022-11-20T14:17:10.297Z,2.88
2022-11-20T14:19:42.121Z,3.17
2022-11-20T14:22:26.561Z,3.16
2022-11-20T14:25:22.912Z,3.16
2022-11-20T14:27:53.751Z,3.09
2022-11-20T14:30:24.084Z,2.98
2022-11-20T14:32:55.401Z,2.85
2022-11-20T14:35:26.572Z,2.77
2022-11-20T14:37:53.923Z,2.72
2022-11-20T14:40:23.760Z,2.68
2022-11-20T14:42:50.314Z,2.67
2022-11-20T14:45:17.988Z,2.66
2022-11-20T14:47:45.267Z,2.64
2022-11-20T14:50:23.692Z,2.60
2022-11-20T14:52:54.142Z,2.54
2022-11-20T14:55:32.849Z,2.47
2022-11-20T14:58:05.747Z,2.41
2022-11-20T15:00:34.250Z,2.33
2022-11-20T15:03:01.319Z,2.24
2022-11-20T15:05:48.402Z,2.16
2022-11-20T15:08:15.513Z,2.10
2022-11-20T15:10:52.697Z,2.04
2022-11-20T15:13:39.911Z,1.97
2022-11-20T15:16:24.897Z,1.88
2022-11-20T15:18:51.682Z,1.79
2022-11-20T15:21:21.753Z,1.73
2022-11-20T15:23:48.931Z,1.68
2022-11-20T15:26:23.249Z,1.65
2022-11-20T15:28:51.053Z,1.61
2022-11-20T15:31:21.115Z,1.57
2022-11-20T15:33:47.841Z,1.53
2022-11-20T15:36:14.484Z,1.47
2022-11-20T15:38:41.242Z,1.43
2022-11-20T15:41:08.985Z,1.40
2022-11-20T15:43:35.436Z,1.36
2022-11-20T15:46:10.181Z,1.34
2022-11-20T15:48:46.247Z,1.31
2022-11-20T15:51:38.976Z,1.28
2022-11-20T15:54:23.247Z,1.28
2022-11-20T15:56:53.156Z,1.23
2022-11-20T15:59:19.849Z,1.19
2022-11-20T16:01:46.769Z,1.13
2022-11-20T16:04:17.657Z,1.08
2022-11-20T16:06:44.210Z,1.04
2022-11-20T16:09:10.616Z,0.97
2022-11-20T16:11:39.716Z,0.92
2022-11-20T16:14:26.028Z,0.90
2022-11-20T16:16:52.728Z,0.85
2022-11-20T16:19:22.350Z,0.78
2022-11-20T16:21:48.820Z,0.71
2022-11-20T16:24:16.625Z,0.62
2022-11-20T16:26:45.173Z,0.54
2022-11-20T16:29:11.678Z,0.45
2022-11-20T16:31:38.460Z,0.33
2022-11-20T16:34:12.575Z,0.22
2022-11-20T16:36:46.872Z,0.12
2022-11-20T16:39:16.695Z,0.04
2022-11-20T16:41:45.558Z,-0.01
2022-11-20T16:44:12.336Z,-0.08
2022-11-20T16:46:40.676Z,-0.13
2022-11-20T16:49:12.541Z,-0.18
2022-11-20T16:51:39.242Z,-0.23
2022-11-20T16:54:10.022Z,-0.27
2022-11-20T16:56:37.380Z,-0.30
2022-11-20T16:59:04.576Z,-0.33
2022-11-20T17:01:31.654Z,-0.38
2022-11-20T17:04:05.231Z,-0.41
2022-11-20T17:06:51.978Z,-0.44
2022-11-20T17:09:19.538Z,-0.46
2022-11-20T17:11:45.933Z,-0.49
2022-11-20T17:14:12.974Z,-0.54
2022-11-20T17:16:40.561Z,-0.59
2022-11-20T17:19:17.479Z,-0.63
2022-11-20T17:21:44.141Z,-0.65
2022-11-20T17:24:15.830Z,-0.66
2022-11-20T17:26:43.870Z,-0.65
2022-11-20T17:29:18.172Z,-0.66
2022-11-20T17:31:45.477Z,-0.65
2022-11-20T17:34:14.557Z,-0.67
2022-11-20T17:36:45.814Z,-0.69
2022-11-20T17:39:16.553Z,-0.71
2022-11-20T17:42:05.993Z,-0.72
2022-11-20T17:44:35.277Z,-0.75
2022-11-20T17:47:01.769Z,-0.76
2022-11-20T17:49:28.208Z,-0.75
2022-11-20T17:51:54.633Z,-0.72
2022-11-20T17:54:21.622Z,-0.69
2022-11-20T17:57:06.839Z,-0.67
2022-11-20T17:59:34.871Z,-0.65
2022-11-20T18:02:03.841Z,-0.63
2022-11-20T18:04:30.546Z,-0.62
2022-11-20T18:06:57.050Z,-0.64
2022-11-20T18:09:23.521Z,-0.65
2022-11-20T18:11:49.914Z,-0.65
2022-11-20T18:14:26.526Z,-0.66
2022-11-20T18:16:55.552Z,-0.63
2022-11-20T18:19:26.015Z,-0.62
2022-11-20T18:21:55.771Z,-0.65
2022-11-20T18:24:24.515Z,-0.65
2022-11-20T18:26:51.408Z,-0.63
2022-11-20T18:29:23.387Z,-0.63
2022-11-20T18:31:50.383Z,-0.64
2022-11-20T18:34:17.083Z,-0.65
2022-11-20T18:36:45.221Z,-0.62
2022-11-20T18:39:12.980Z,-0.60
2022-11-20T18:41:58.023Z,-0.59
2022-11-20T18:44:48.588Z,-0.58
2022-11-20T18:47:18.094Z,-0.56
2022-11-20T18:49:50.776Z,-0.52
2022-11-20T18:52:23.965Z,-0.47
2022-11-20T18:54:51.175Z,-0.44
2022-11-20T18:57:22.762Z,-0.38
2022-11-20T18:59:49.438Z,-0.33
2022-11-20T19:02:18.687Z,-0.31
2022-11-20T19:04:48.323Z,-0.28
2022-11-20T19:07:15.862Z,-0.24
2022-11-20T19:09:52.335Z,-0.22
2022-11-20T19:12:20.835Z,-0.22
2022-11-20T19:14:47.528Z,-0.23
2022-11-20T19:17:14.500Z,-0.24
2022-11-20T19:19:40.999Z,-0.24
2022-11-20T19:22:08.269Z,-0.21
2022-11-20T19:24:37.086Z,-0.18
2022-11-20T19:27:03.743Z,-0.15
2022-11-20T19:29:30.640Z,-0.14
2022-11-20T19:32:00.625Z,-0.14
2022-11-20T19:34:27.053Z,-0.13
2022-11-20T19:36:54.011Z,-0.14
2022-11-20T19:39:20.459Z,-0.14
2022-11-20T19:41:46.968Z,-0.14
2022-11-20T19:44:15.745Z,-0.14
2022-11-20T19:46:45.214Z,-0.15
2022-11-20T19:49:14.227Z,-0.17
2022-11-20T19:51:46.458Z,-0.18
2022-11-20T19:54:15.567Z,-0.16
2022-11-20T19:56:42.059Z,-0.12
2022-11-20T19:59:08.527Z,-0.07
2022-11-20T20:01:35.452Z,-0.04
2022-11-20T20:04:03.602Z,-0.00
2022-11-20T20:06:34.822Z,0.03
2022-11-20T20:09:05.902Z,0.06
2022-11-20T20:11:34.169Z,0.06
2022-11-20T20:14:03.080Z,0.07
2022-11-20T20:16:29.824Z,0.11
2022-11-20T20:19:01.288Z,0.15
2022-11-20T20:21:28.369Z,0.17
2022-11-20T20:23:55.670Z,0.15
2022-11-20T20:26:26.890Z,0.13
2022-11-20T20:28:53.431Z,0.11
2022-11-20T20:31:23.883Z,0.09
2022-11-20T20:33:50.541Z,0.06
2022-11-20T20:36:21.319Z,0.05
2022-11-20T20:38:48.167Z,0.05
2022-11-20T20:41:14.882Z,0.03
2022-11-20T20:44:00.048Z,0.02
2022-11-20T20:46:26.490Z,-0.00
2022-11-20T20:48:54.964Z,-0.01
2022-11-20T20:51:22.557Z,-0.01
2022-11-20T20:53:50.106Z,-0.01
2022-11-20T20:56:17.647Z,0.01
2022-11-20T20:58:44.417Z,0.03
2022-11-20T21:01:13.776Z,0.05
2022-11-20T21:03:40.872Z,0.05
2022-11-20T21:06:09.795Z,0.06
2022-11-20T21:08:40.130Z,0.08
2022-11-20T21:11:16.200Z,0.13
2022-11-20T21:13:44.559Z,0.18
2022-11-20T21:16:16.316Z,0.23
2022-11-20T21:18:42.768Z,0.25
2022-11-20T21:21:31.368Z,0.26
2022-11-20T21:23:58.260Z,0.29
2022-11-20T21:26:24.983Z,0.32
2022-11-20T21:28:53.666Z,0.34
2022-11-20T21:31:23.457Z,0.37
2022-11-20T21:33:52.262Z,0.40
2022-11-20T21:36:24.136Z,0.40
2022-11-20T21:38:51.809Z,0.41
2022-11-20T21:41:18.265Z,0.43
2022-11-20T21:43:44.782Z,0.42
2022-11-20T21:46:17.065Z,0.39
2022-11-20T21:48:45.297Z,0.34
2022-11-20T21:51:15.152Z,0.27
2022-11-20T21:53:42.538Z,0.26
2022-11-20T21:56:10.559Z,0.26
2022-11-20T21:58:38.419Z,0.28
2022-11-20T22:01:28.736Z,0.29
2022-11-20T22:04:00.207Z,0.29
2022-11-20T22:06:29.900Z,0.28
2022-11-20T22:08:56.295Z,0.28
2022-11-20T22:11:22.866Z,0.31
2022-11-20T22:14:07.846Z,0.35
2022-11-20T22:16:35.350Z,0.38
2022-11-20T22:19:04.975Z,0.39
2022-11-20T22:21:32.142Z,0.40
2022-11-20T22:23:59.504Z,0.42
2022-11-20T22:26:33.790Z,0.42
2022-11-20T22:29:02.599Z,0.39
2022-11-20T22:31:30.303Z,0.42
2022-11-20T22:33:58.298Z,0.44
2022-11-20T22:36:28.345Z,0.47
2022-11-20T22:38:58.696Z,0.48
2022-11-20T22:41:28.648Z,0.49
2022-11-20T22:43:57.134Z,0.48
2022-11-20T22:46:25.067Z,0.44
2022-11-20T22:48:53.820Z,0.39
2022-11-20T22:51:25.958Z,0.42
2022-11-20T22:53:52.981Z,0.46
2022-11-20T22:56:20.323Z,0.47
2022-11-20T22:58:52.067Z,0.47
2022-11-20T23:01:29.793Z,0.49
2022-11-20T23:03:58.515Z,0.51
2022-11-20T23:06:25.795Z,0.53
2022-11-20T23:08:54.870Z,0.55
2022-11-20T23:11:27.680Z,0.56
2022-11-20T23:14:01.274Z,0.59
2022-11-20T23:16:29.753Z,0.60
2022-11-20T23:19:15.315Z,0.58
2022-11-20T23:21:43.067Z,0.55
2022-11-20T23:24:10.089Z,0.54
2022-11-20T23:26:38.861Z,0.51
2022-11-20T23:29:06.199Z,0.49
2022-11-20T23:31:36.849Z,0.49
2022-11-20T23:34:03.612Z,0.48
2022-11-20T23:36:32.835Z,0.48
2022-11-20T23:38:59.311Z,0.47
2022-11-20T23:41:25.897Z,0.47
2022-11-20T23:43:53.391Z,0.48
2022-11-20T23:46:19.796Z,0.49
2022-11-20T23:48:46.401Z,0.50
2022-11-20T23:51:14.005Z,0.50
2022-11-20T23:53:40.682Z,0.48
2022-11-20T23:56:10.776Z,0.47
2022-11-20T23:58:38.571Z,0.46
